GRZ507 Details

Departure: Fairbanks International Airport (PAFA)
Arrival: Wiley Post-Will Rogers Memorial Airport (PABR) at N/A
Route: FAI Q61 BRW
Notes:


Current Weather Information
PAFA 251053Z 04003KT 10SM CLR 04/02 A2984 RMK AO2 SLP110 T00440022
PABR 251053Z AUTO 33008KT 10SM BKN013 OVC025 05/02 A2965 RMK AO2 SLP040 T00500022 TSNO $